createdAt,value
2022-09-30T00:04:49.640Z,10.82
2022-09-30T00:10:21.421Z,10.77
2022-09-30T00:15:53.757Z,10.73
2022-09-30T00:21:25.588Z,10.68
2022-09-30T00:26:57.393Z,10.63
2022-09-30T00:32:29.150Z,10.65
2022-09-30T00:38:01.982Z,10.60
2022-09-30T00:43:33.766Z,10.63
2022-09-30T00:49:05.189Z,10.61
2022-09-30T01:00:06.288Z,10.59
2022-09-30T01:05:38.082Z,10.57
2022-09-30T01:11:09.978Z,10.60
2022-09-30T01:16:41.913Z,10.63
2022-09-30T01:22:13.808Z,10.71
2022-09-30T01:27:45.482Z,10.71
2022-09-30T01:33:16.943Z,10.70
2022-09-30T01:38:48.760Z,10.73
2022-09-30T01:44:20.652Z,10.73
2022-09-30T01:49:52.432Z,10.73
2022-09-30T01:55:24.587Z,10.71
2022-09-30T02:00:56.242Z,10.73
2022-09-30T02:06:28.080Z,10.77
2022-09-30T02:12:00.022Z,10.75
2022-09-30T02:17:32.233Z,10.74
2022-09-30T02:23:04.095Z,10.75
2022-09-30T02:28:35.950Z,10.75
2022-09-30T02:34:07.654Z,10.73
2022-09-30T02:39:39.579Z,10.67
2022-09-30T02:45:11.395Z,10.60
2022-09-30T02:50:43.273Z,10.56
2022-09-30T02:53:07.638Z,10.50
2022-09-30T02:58:39.425Z,10.48
2022-09-30T03:04:12.244Z,10.41
2022-09-30T03:09:44.161Z,10.36
2022-09-30T03:15:15.744Z,10.27
2022-09-30T03:20:47.839Z,10.23
2022-09-30T03:26:25.069Z,10.15
2022-09-30T03:31:56.736Z,10.12
2022-09-30T03:37:28.152Z,10.08
2022-09-30T03:48:31.286Z,10.06
2022-09-30T03:54:03.130Z,10.06
2022-09-30T03:59:36.860Z,10.05
2022-09-30T04:05:08.628Z,10.04
2022-09-30T04:10:40.337Z,9.98
2022-09-30T04:16:12.159Z,9.99
2022-09-30T04:21:44.184Z,10.01
2022-09-30T04:32:49.356Z,9.97
2022-09-30T04:38:21.204Z,9.97
2022-09-30T04:43:52.846Z,9.94
2022-09-30T04:49:24.694Z,9.95
2022-09-30T05:00:28.458Z,9.98
2022-09-30T05:06:00.156Z,10.04
2022-09-30T05:11:31.890Z,10.06
2022-09-30T05:17:03.227Z,10.08
2022-09-30T05:30:27.964Z,0.00
2022-09-30T05:35:59.800Z,10.19
2022-09-30T05:41:31.552Z,10.20
2022-09-30T05:47:02.785Z,10.20
2022-09-30T05:52:34.332Z,10.22
2022-09-30T05:58:06.043Z,10.29
2022-09-30T06:09:09.621Z,10.53
2022-09-30T06:14:41.316Z,10.59
2022-09-30T06:20:13.063Z,10.73
2022-09-30T06:25:44.797Z,11.12
2022-09-30T06:36:49.886Z,12.33
2022-09-30T06:42:24.053Z,13.19
2022-09-30T06:48:00.160Z,15.24
2022-09-30T06:58:59.202Z,15.90
2022-09-30T07:04:31.128Z,15.68
2022-09-30T07:10:02.839Z,15.27
2022-09-30T07:15:34.673Z,15.06
2022-09-30T07:26:38.825Z,14.54
2022-09-30T07:37:41.668Z,14.17
2022-09-30T07:43:13.155Z,14.27
2022-09-30T07:48:44.920Z,14.57
2022-09-30T07:54:16.810Z,15.00
2022-09-30T07:59:48.464Z,14.99
2022-09-30T08:05:19.652Z,15.05
2022-09-30T08:10:51.206Z,15.05
2022-09-30T08:16:23.069Z,14.95
2022-09-30T08:21:54.465Z,15.00
2022-09-30T08:27:28.480Z,15.37
2022-09-30T08:32:59.963Z,15.56
2022-09-30T08:38:31.724Z,16.00
2022-09-30T08:44:03.478Z,15.97
2022-09-30T08:49:34.932Z,16.08
2022-09-30T08:55:06.886Z,16.31
2022-09-30T09:00:39.034Z,17.26
2022-09-30T09:06:10.958Z,17.62
2022-09-30T09:11:43.463Z,17.86
2022-09-30T09:17:15.825Z,17.69
2022-09-30T09:22:46.247Z,17.89
2022-09-30T09:28:18.198Z,18.09
2022-09-30T09:33:49.884Z,18.13
2022-09-30T09:39:21.692Z,18.40
2022-09-30T09:44:53.348Z,18.87
2022-09-30T09:50:24.727Z,18.97
2022-09-30T09:58:16.565Z,0.00
2022-09-30T10:03:48.209Z,18.55
2022-09-30T10:09:19.582Z,18.30
2022-09-30T10:14:50.871Z,18.47
2022-09-30T10:25:51.757Z,18.58
2022-09-30T10:31:23.004Z,18.46
2022-09-30T10:47:53.284Z,18.89
2022-09-30T10:53:24.805Z,18.76
2022-09-30T10:58:56.629Z,18.14
2022-09-30T11:04:28.467Z,17.84
2022-09-30T11:10:00.208Z,17.48
2022-09-30T11:15:31.524Z,17.33
2022-09-30T11:21:02.858Z,17.33
2022-09-30T11:26:34.396Z,17.40
2022-09-30T11:43:08.095Z,17.68
2022-09-30T11:48:37.015Z,17.71
2022-09-30T11:54:09.040Z,17.72
2022-09-30T11:59:40.488Z,17.61
2022-09-30T12:05:12.155Z,17.55
2022-09-30T12:10:43.872Z,17.58
2022-09-30T12:16:15.081Z,17.61
2022-09-30T12:21:46.683Z,17.71
2022-09-30T12:27:18.535Z,17.71
2022-09-30T12:32:50.376Z,17.38
2022-09-30T12:38:22.099Z,17.23
2022-09-30T12:43:54.149Z,17.05
2022-09-30T12:49:25.853Z,16.98
2022-09-30T12:54:57.789Z,17.07
2022-09-30T13:00:29.700Z,17.13
2022-09-30T13:06:01.405Z,17.13
2022-09-30T13:17:02.736Z,17.38
2022-09-30T13:22:34.488Z,17.54
2022-09-30T13:28:06.335Z,17.95
2022-09-30T13:33:38.142Z,18.02
2022-09-30T13:39:09.953Z,17.95
2022-09-30T13:44:41.876Z,17.84
2022-09-30T13:50:13.663Z,17.58
2022-09-30T13:55:45.570Z,17.48
2022-09-30T14:03:37.664Z,0.00
2022-09-30T14:09:09.322Z,17.72
2022-09-30T14:14:41.088Z,17.86
2022-09-30T14:20:12.574Z,18.02
2022-09-30T14:25:44.232Z,18.04
2022-09-30T14:31:16.272Z,17.92
2022-09-30T14:36:47.893Z,17.84
2022-09-30T14:42:19.593Z,17.71
2022-09-30T14:47:51.033Z,17.67
2022-09-30T14:53:23.572Z,17.61
2022-09-30T15:04:26.087Z,17.29
2022-09-30T15:09:57.967Z,17.16
2022-09-30T15:15:29.764Z,16.98
2022-09-30T15:21:01.360Z,16.93
2022-09-30T15:26:33.712Z,16.89
2022-09-30T15:32:05.422Z,16.84
2022-09-30T15:37:36.718Z,16.80
2022-09-30T15:43:08.112Z,16.78
2022-09-30T15:48:40.198Z,16.72
2022-09-30T15:54:11.704Z,16.64
2022-09-30T15:59:43.399Z,16.57
2022-09-30T16:05:15.202Z,16.54
2022-09-30T16:10:46.741Z,16.45
2022-09-30T16:16:18.570Z,16.41
2022-09-30T16:21:50.228Z,16.31
2022-09-30T16:27:22.186Z,16.27
2022-09-30T16:32:53.884Z,16.19
2022-09-30T16:38:25.697Z,16.15
2022-09-30T16:43:57.307Z,16.03
2022-09-30T16:49:29.133Z,15.96
2022-09-30T16:55:00.899Z,15.93
2022-09-30T17:00:32.791Z,15.88
2022-09-30T17:06:04.559Z,15.84
2022-09-30T17:11:36.288Z,15.78
2022-09-30T17:17:12.483Z,15.74
2022-09-30T17:28:09.376Z,15.67
2022-09-30T17:33:41.077Z,15.65
2022-09-30T17:39:12.803Z,15.61
2022-09-30T17:44:44.475Z,15.60
2022-09-30T17:50:16.545Z,15.60
2022-09-30T17:55:48.388Z,15.54
2022-09-30T18:06:49.726Z,15.53
2022-09-30T18:12:21.581Z,15.47
2022-09-30T18:17:53.317Z,15.47
2022-09-30T18:23:25.039Z,15.43
2022-09-30T18:28:56.825Z,15.40
2022-09-30T18:34:28.572Z,15.41
2022-09-30T18:40:00.459Z,15.41
2022-09-30T18:51:01.922Z,15.39
2022-09-30T18:56:33.585Z,15.31
2022-09-30T19:02:05.368Z,15.24
2022-09-30T19:07:37.186Z,15.23
2022-09-30T19:13:09.061Z,15.19
2022-09-30T19:18:40.765Z,15.17
2022-09-30T19:24:12.540Z,15.17
2022-09-30T19:29:44.274Z,15.16
2022-09-30T19:35:15.897Z,15.13
2022-09-30T19:40:47.915Z,15.09
2022-09-30T19:46:20.118Z,14.99
2022-09-30T19:51:51.845Z,14.95
2022-09-30T19:57:23.865Z,14.81
2022-09-30T20:02:55.188Z,14.79
2022-09-30T20:08:26.850Z,14.76
2022-09-30T20:13:58.621Z,14.78
2022-09-30T20:19:30.380Z,14.81
2022-09-30T20:25:02.161Z,14.84
2022-09-30T20:30:33.812Z,14.84
2022-09-30T20:36:05.721Z,14.81
2022-09-30T20:41:37.466Z,14.78
2022-09-30T20:47:09.182Z,14.72
2022-09-30T20:52:40.994Z,14.72
2022-09-30T20:58:12.704Z,14.71
2022-09-30T21:03:44.644Z,14.68
2022-09-30T21:09:16.424Z,14.67
2022-09-30T21:14:48.152Z,14.63
2022-09-30T21:20:19.974Z,14.60
2022-09-30T21:31:21.304Z,14.53
2022-09-30T21:36:53.071Z,14.48
2022-09-30T21:42:24.842Z,14.37
2022-09-30T21:47:56.719Z,14.30
2022-09-30T21:53:28.663Z,14.05
2022-09-30T21:59:00.660Z,13.89
2022-09-30T22:10:01.857Z,13.47
2022-09-30T22:15:33.623Z,13.20
2022-09-30T22:21:05.531Z,13.08
2022-09-30T22:26:37.200Z,12.86
2022-09-30T22:32:09.030Z,12.74
2022-09-30T22:37:40.161Z,12.51
2022-09-30T22:43:11.786Z,12.41
2022-09-30T22:48:43.508Z,12.22
2022-09-30T22:54:15.326Z,12.13
2022-09-30T22:59:47.110Z,12.06
2022-09-30T23:05:18.966Z,12.06
2022-09-30T23:10:51.014Z,12.18
2022-09-30T23:16:22.669Z,12.22
2022-09-30T23:21:54.470Z,12.32
2022-09-30T23:27:26.235Z,12.39
2022-09-30T23:32:58.257Z,12.60
2022-09-30T23:38:30.188Z,12.63
2022-09-30T23:44:01.868Z,12.75
2022-09-30T23:49:33.718Z,12.78
2022-09-30T23:55:05.376Z,12.84
